Time;durP1;ratioP1;P1;durP2;ratioP2;P2;SDS_P1;SDS_P2;PMS_P1;PMS_P2;Temp;Humidity;BMP_temperature;BMP_pressure;BME280_temperature;BME280_humidity;BME280_pressure;Samples;Min_cycle;Max_cycle;Signal;HPM_P1;HPM_P2
2022/09/11 00:00:52;;;;;;;;;;;;;;;;;;5175633;27;20377;-53
2022/09/11 00:03:21;;;;;;;;;;;;;;;;;;5175539;27;19927;-46
2022/09/11 00:05:48;;;;;;;;;;;;;;;;;;5175666;27;20784;-46
2022/09/11 00:08:16;;;;;;;;;;;;;;;;;;5175544;27;19923;-52
2022/09/11 00:10:44;;;;;;;;;;;;;;;;;;5175685;27;19923;-47
2022/09/11 00:13:13;;;;;;;;;;;;;;;;;;5175308;27;19922;-50
2022/09/11 00:15:42;;;;;;;;;;;;;;;;;;5175348;27;19950;-53
2022/09/11 00:18:13;;;;;;;;;;;;;;;;;;5175417;27;19923;-45
2022/09/11 00:20:48;;;;;;;;;;;;;;;;;;5175457;27;20021;-52
2022/09/11 00:23:16;;;;;;;;;;;;;;;;;;5175189;27;19975;-50
2022/09/11 00:25:45;;;;;;;;;;;;;;;;;;5174844;27;19923;-50
2022/09/11 00:28:14;;;;;;;;;;;;;;;;;;5175150;27;19969;-47
2022/09/11 00:30:45;;;;;;;;;;;;;;;;;;5175419;27;19923;-50
2022/09/11 00:33:14;;;;;;;;;;;;;;;;;;5174966;27;20430;-46
2022/09/11 00:35:41;;;;;;;;;;;;;;;;;;5175294;27;19923;-49
2022/09/11 00:38:10;;;;;;;;;;;;;;;;;;5175031;27;19945;-49
2022/09/11 00:40:44;;;;;;;;;;;;;;;;;;5175246;27;19927;-49
2022/09/11 00:43:13;;;;;;;;;;;;;;;;;;5174993;27;19923;-48
2022/09/11 00:45:40;;;;;;;;;;;;;;;;;;5174945;27;19922;-50
2022/09/11 00:48:12;;;;;;;;;;;;;;;;;;5156336;27;19929;-51
2022/09/11 00:50:42;;;;;;;;;;;;;;;;;;5174936;27;19975;-51
2022/09/11 00:53:10;;;;;;;;;;;;;;;;;;5174823;27;19923;-52
2022/09/11 00:55:40;;;;;;;;;;;;;;;;;;5174774;27;20385;-48
2022/09/11 00:58:11;;;;;;;;;;;;;;;;;;5174938;27;20278;-50
2022/09/11 01:00:41;;;;;;;;;;;;;;;;;;5174892;27;20013;-51
2022/09/11 01:03:11;;;;;;;;;;;;;;;;;;5155981;27;19999;-51
2022/09/11 01:05:40;;;;;;;;;;;;;;;;;;5174450;27;19922;-50
2022/09/11 01:08:07;;;;;;;;;;;;;;;;;;5174804;27;19923;-46
2022/09/11 01:10:41;;;;;;;;;;;;;;;;;;5155837;27;19993;-46
2022/09/11 01:13:09;;;;;;;;;;;;;;;;;;5155933;27;19945;-50
2022/09/11 01:15:41;;;;;;;;;;;;;;;;;;5174541;27;20378;-44
2022/09/11 01:18:14;;;;;;;;;;;;;;;;;;5174723;27;19966;-51
2022/09/11 01:20:44;;;;;;;;;;;;;;;;;;5174644;27;20024;-51
2022/09/11 01:23:25;;;;;;;;;;;;;;;;;;5156260;27;19962;-52
2022/09/11 01:26:11;;;;;;;;;;;;;;;;;;5174626;27;20021;-44
2022/09/11 01:28:42;;;;;;;;;;;;;;;;;;5155419;27;19954;-53
2022/09/11 01:31:11;;;;;;;;;;;;;;;;;;5174344;27;19922;-53
2022/09/11 01:33:43;;;;;;;;;;;;;;;;;;5155729;27;20389;-52
2022/09/11 01:36:21;;;;;;;;;;;;;;;;;;5156027;27;19923;-52
2022/09/11 01:38:51;;;;;;;;;;;;;;;;;;5174595;27;19926;-51
2022/09/11 01:41:26;;;;;;;;;;;;;;;;;;5155947;27;19923;-50
2022/09/11 01:43:55;;;;;;;;;;;;;;;;;;5155967;27;19930;-51
2022/09/11 01:46:25;;;;;;;;;;;;;;;;;;5155712;27;20381;-53
2022/09/11 01:48:59;;;;;;;;;;;;;;;;;;5155206;27;20330;-49
2022/09/11 01:51:28;;;;;;;;;;;;;;;;;;5155710;27;20397;-52
2022/09/11 01:53:55;;;;;;;;;;;;;;;;;;5174475;27;19945;-53
2022/09/11 01:56:36;;;;;;;;;;;;;;;;;;5155962;27;19969;-49
2022/09/11 01:59:05;;;;;;;;;;;;;;;;;;5174352;27;20377;-52
2022/09/11 02:01:35;;;;;;;;;;;;;;;;;;5157720;27;19927;-53
2022/09/11 02:04:19;;;;;;;;;;;;;;;;;;5159247;27;19967;-50
2022/09/11 02:06:56;;;;;;;;;;;;;;;;;;5178289;27;19923;-49
2022/09/11 02:09:31;;;;;;;;;;;;;;;;;;5155910;27;19923;-52
2022/09/11 02:12:01;;;;;;;;;;;;;;;;;;5155676;27;19930;-50
2022/09/11 02:14:34;;;;;;;;;;;;;;;;;;5155796;27;19929;-46
2022/09/11 02:17:07;;;;;;;;;;;;;;;;;;5156786;27;19923;-49
2022/09/11 02:19:35;;;;;;;;;;;;;;;;;;5155527;27;19923;-51
2022/09/11 02:22:04;;;;;;;;;;;;;;;;;;5155553;27;20010;-52
2022/09/11 02:24:35;;;;;;;;;;;;;;;;;;5155420;27;19927;-51
2022/09/11 02:27:04;;;;;;;;;;;;;;;;;;5156742;27;19927;-48
2022/09/11 02:29:32;;;;;;;;;;;;;;;;;;5155122;27;19934;-52
2022/09/11 02:31:59;;;;;;;;;;;;;;;;;;5156823;27;19923;-53
2022/09/11 02:34:31;;;;;;;;;;;;;;;;;;5156802;27;20017;-53
2022/09/11 02:37:10;;;;;;;;;;;;;;;;;;5155525;27;19927;-52
2022/09/11 02:39:44;;;;;;;;;;;;;;;;;;5154920;27;19931;-48
2022/09/11 02:42:31;;;;;;;;;;;;;;;;;;5155042;27;20005;-51
2022/09/11 02:45:16;;;;;;;;;;;;;;;;;;5155425;27;19930;-44
2022/09/11 02:47:54;;;;;;;;;;;;;;;;;;5155189;27;19959;-52
2022/09/11 02:50:32;;;;;;;;;;;;;;;;;;5156092;27;19923;-50
2022/09/11 02:53:04;;;;;;;;;;;;;;;;;;5155189;27;19966;-50
2022/09/11 02:55:34;;;;;;;;;;;;;;;;;;5153219;27;19962;-50
2022/09/11 02:58:04;;;;;;;;;;;;;;;;;;5154543;27;19976;-52
2022/09/11 03:00:34;;;;;;;;;;;;;;;;;;5153445;27;19926;-48
2022/09/11 03:03:02;;;;;;;;;;;;;;;;;;5153331;27;20267;-49
2022/09/11 03:05:30;;;;;;;;;;;;;;;;;;5153285;27;19931;-50
2022/09/11 03:07:58;;;;;;;;;;;;;;;;;;5153289;27;19923;-49
2022/09/11 03:10:26;;;;;;;;;;;;;;;;;;5139093;27;19928;-45
2022/09/11 03:12:54;;;;;;;;;;;;;;;;;;5132567;27;20394;-52
2022/09/11 03:15:22;;;;;;;;;;;;;;;;;;5133666;27;20313;-46
2022/09/11 03:17:50;;;;;;;;;;;;;;;;;;5132418;27;20478;-47
2022/09/11 03:20:19;;;;;;;;;;;;;;;;;;5132170;27;19927;-48
2022/09/11 03:22:46;;;;;;;;;;;;;;;;;;5132082;27;19923;-51
2022/09/11 03:25:14;;;;;;;;;;;;;;;;;;5131943;27;19975;-51
2022/09/11 03:27:41;;;;;;;;;;;;;;;;;;5132037;27;19968;-51
2022/09/11 03:30:11;;;;;;;;;;;;;;;;;;5132046;27;19930;-48
2022/09/11 03:32:38;;;;;;;;;;;;;;;;;;5131994;27;19963;-49
2022/09/11 03:35:06;;;;;;;;;;;;;;;;;;5132974;27;19923;-46
2022/09/11 03:37:36;;;;;;;;;;;;;;;;;;5133240;27;20302;-49
2022/09/11 03:40:03;;;;;;;;;;;;;;;;;;5132010;27;19990;-51
2022/09/11 03:42:32;;;;;;;;;;;;;;;;;;5132835;27;20034;-46
2022/09/11 03:44:59;;;;;;;;;;;;;;;;;;5132090;27;20026;-50
2022/09/11 03:47:26;;;;;;;;;;;;;;;;;;5139869;27;19923;-52
2022/09/11 03:49:54;;;;;;;;;;;;;;;;;;5152301;27;19966;-51
2022/09/11 03:52:22;;;;;;;;;;;;;;;;;;5152057;27;20335;-52
2022/09/11 03:54:49;;;;;;;;;;;;;;;;;;5150200;27;19934;-43
2022/09/11 03:57:17;;;;;;;;;;;;;;;;;;5138996;27;19982;-52
2022/09/11 03:59:44;;;;;;;;;;;;;;;;;;5132368;27;19927;-52
2022/09/11 04:02:12;;;;;;;;;;;;;;;;;;5131219;27;19977;-53
2022/09/11 04:04:40;;;;;;;;;;;;;;;;;;5146872;27;19931;-55
2022/09/11 04:07:07;;;;;;;;;;;;;;;;;;5153325;27;19923;-52
2022/09/11 04:09:34;;;;;;;;;;;;;;;;;;5151508;27;19931;-53
2022/09/11 04:12:02;;;;;;;;;;;;;;;;;;5151560;27;20335;-52
2022/09/11 04:14:29;;;;;;;;;;;;;;;;;;5153221;27;19930;-51
2022/09/11 04:16:58;;;;;;;;;;;;;;;;;;5151652;27;20333;-48
2022/09/11 04:19:28;;;;;;;;;;;;;;;;;;5151959;27;19927;-53
2022/09/11 04:21:55;;;;;;;;;;;;;;;;;;5151676;27;19954;-45
2022/09/11 04:24:23;;;;;;;;;;;;;;;;;;5151196;27;20035;-46
2022/09/11 04:26:51;;;;;;;;;;;;;;;;;;5151678;27;20166;-46
2022/09/11 04:29:26;;;;;;;;;;;;;;;;;;5151593;27;19923;-47
2022/09/11 04:31:55;;;;;;;;;;;;;;;;;;5151182;27;20304;-46
2022/09/11 04:34:26;;;;;;;;;;;;;;;;;;5151559;27;19923;-47
2022/09/11 04:36:54;;;;;;;;;;;;;;;;;;5150312;27;19938;-46
2022/09/11 04:39:22;;;;;;;;;;;;;;;;;;5151482;27;19926;-47
2022/09/11 04:41:50;;;;;;;;;;;;;;;;;;5152211;27;19927;-49
2022/09/11 04:44:19;;;;;;;;;;;;;;;;;;5152273;27;19923;-52
2022/09/11 04:46:46;;;;;;;;;;;;;;;;;;5152555;27;20389;-49
2022/09/11 04:49:14;;;;;;;;;;;;;;;;;;5151131;27;19977;-48
2022/09/11 04:51:44;;;;;;;;;;;;;;;;;;5151196;27;19930;-48
2022/09/11 04:54:14;;;;;;;;;;;;;;;;;;5152263;27;19924;-53
2022/09/11 04:56:42;;;;;;;;;;;;;;;;;;5131485;27;19927;-48
2022/09/11 04:59:14;;;;;;;;;;;;;;;;;;5130384;27;19956;-51
2022/09/11 05:01:47;;;;;;;;;;;;;;;;;;5130384;28;19953;-50
2022/09/11 05:04:17;;;;;;;;;;;;;;;;;;5142428;27;19923;-49
2022/09/11 05:06:51;;;;;;;;;;;;;;;;;;5150733;27;20014;-46
2022/09/11 05:09:18;;;;;;;;;;;;;;;;;;5150851;27;20038;-49
2022/09/11 05:11:47;;;;;;;;;;;;;;;;;;5150752;27;19973;-49
2022/09/11 05:14:15;;;;;;;;;;;;;;;;;;5139739;27;19923;-47
2022/09/11 05:16:45;;;;;;;;;;;;;;;;;;5130233;28;19959;-52
2022/09/11 05:19:15;;;;;;;;;;;;;;;;;;5130087;28;19923;-47
2022/09/11 05:21:44;;;;;;;;;;;;;;;;;;5129914;28;19931;-55
2022/09/11 05:24:13;;;;;;;;;;;;;;;;;;5131564;27;20000;-49
2022/09/11 05:26:40;;;;;;;;;;;;;;;;;;5129955;28;19927;-50
2022/09/11 05:29:11;;;;;;;;;;;;;;;;;;5130152;28;19947;-50
2022/09/11 05:31:44;;;;;;;;;;;;;;;;;;5131191;27;20390;-46
2022/09/11 05:34:14;;;;;;;;;;;;;;;;;;5129865;28;20019;-49
2022/09/11 05:36:42;;;;;;;;;;;;;;;;;;5132424;27;19930;-50
2022/09/11 05:39:09;;;;;;;;;;;;;;;;;;5134164;27;19971;-51
2022/09/11 05:41:38;;;;;;;;;;;;;;;;;;5133840;27;20623;-47
2022/09/11 05:44:06;;;;;;;;;;;;;;;;;;5133873;27;19924;-51
2022/09/11 05:46:36;;;;;;;;;;;;;;;;;;5134919;27;19971;-49
2022/09/11 05:49:04;;;;;;;;;;;;;;;;;;5133846;27;19978;-50
2022/09/11 05:51:34;;;;;;;;;;;;;;;;;;5148533;27;19933;-50
2022/09/11 05:54:03;;;;;;;;;;;;;;;;;;5154238;27;19930;-52
2022/09/11 05:56:32;;;;;;;;;;;;;;;;;;5154272;27;19959;-52
2022/09/11 05:59:08;;;;;;;;;;;;;;;;;;5154172;27;19999;-51
2022/09/11 06:01:36;;;;;;;;;;;;;;;;;;5154159;27;19927;-52
2022/09/11 06:04:14;;;;;;;;;;;;;;;;;;5154258;27;19983;-48
2022/09/11 06:06:46;;;;;;;;;;;;;;;;;;5137498;27;19927;-53
2022/09/11 06:09:15;;;;;;;;;;;;;;;;;;5153756;27;19923;-54
2022/09/11 06:11:43;;;;;;;;;;;;;;;;;;5154192;27;19924;-49
2022/09/11 06:14:12;;;;;;;;;;;;;;;;;;5153943;27;19936;-52
2022/09/11 06:16:42;;;;;;;;;;;;;;;;;;5154062;27;19968;-50
2022/09/11 06:19:13;;;;;;;;;;;;;;;;;;5154020;27;19968;-53
2022/09/11 06:21:40;;;;;;;;;;;;;;;;;;5153781;27;19931;-53
2022/09/11 06:24:20;;;;;;;;;;;;;;;;;;5151956;27;19976;-54
2022/09/11 06:26:48;;;;;;;;;;;;;;;;;;5153820;27;19923;-50
2022/09/11 06:29:16;;;;;;;;;;;;;;;;;;5153911;27;19930;-52
2022/09/11 06:31:50;;;;;;;;;;;;;;;;;;5153614;27;19930;-49
2022/09/11 06:34:21;;;;;;;;;;;;;;;;;;5153396;27;20306;-49
2022/09/11 06:36:50;;;;;;;;;;;;;;;;;;5154752;27;20282;-49
2022/09/11 06:39:21;;;;;;;;;;;;;;;;;;5153765;27;19923;-51
2022/09/11 06:41:52;;;;;;;;;;;;;;;;;;5136804;27;19948;-52
2022/09/11 06:44:26;;;;;;;;;;;;;;;;;;5132604;27;19942;-44
2022/09/11 06:46:59;;;;;;;;;;;;;;;;;;5133694;27;20338;-50
2022/09/11 06:49:28;;;;;;;;;;;;;;;;;;5134193;27;20451;-51
2022/09/11 06:52:14;;;;;;;;;;;;;;;;;;5133920;27;20389;-49
2022/09/11 06:54:52;;;;;;;;;;;;;;;;;;5132479;27;19924;-51
2022/09/11 06:57:19;;;;;;;;;;;;;;;;;;5132343;27;19968;-50
2022/09/11 06:59:46;;;;;;;;;;;;;;;;;;5132539;27;19923;-49
2022/09/11 07:02:15;;;;;;;;;;;;;;;;;;5132304;27;20482;-50
2022/09/11 07:04:46;;;;;;;;;;;;;;;;;;5148754;27;19931;-48
2022/09/11 07:07:14;;;;;;;;;;;;;;;;;;5153172;27;19930;-50
2022/09/11 07:09:41;;;;;;;;;;;;;;;;;;5156201;27;19922;-50
2022/09/11 07:12:11;;;;;;;;;;;;;;;;;;5156379;27;20585;-52
2022/09/11 07:14:38;;;;;;;;;;;;;;;;;;5156319;27;19923;-52
2022/09/11 07:17:14;;;;;;;;;;;;;;;;;;5175370;27;20053;-44
2022/09/11 07:19:43;;;;;;;;;;;;;;;;;;5156399;27;19931;-52
2022/09/11 07:22:10;;;;;;;;;;;;;;;;;;5130278;27;19923;-47
2022/09/11 07:24:37;;;;;;;;;;;;;;;;;;5155230;27;19971;-50
2022/09/11 07:27:05;;;;;;;;;;;;;;;;;;5137063;27;19927;-51
2022/09/11 07:29:34;;;;;;;;;;;;;;;;;;5136957;27;19974;-52
2022/09/11 07:32:01;;;;;;;;;;;;;;;;;;5137256;27;19971;-49
2022/09/11 07:34:29;;;;;;;;;;;;;;;;;;5136956;27;19966;-47
2022/09/11 07:37:02;;;;;;;;;;;;;;;;;;5136809;27;20445;-47
2022/09/11 07:39:30;;;;;;;;;;;;;;;;;;5137084;27;19930;-49
2022/09/11 07:42:03;;;;;;;;;;;;;;;;;;5136859;27;20374;-48
2022/09/11 07:44:32;;;;;;;;;;;;;;;;;;5136556;27;19927;-44
2022/09/11 07:47:00;;;;;;;;;;;;;;;;;;5155308;27;20335;-46
2022/09/11 07:49:31;;;;;;;;;;;;;;;;;;5153880;27;20445;-48
2022/09/11 07:51:58;;;;;;;;;;;;;;;;;;5142795;27;19975;-46
2022/09/11 07:54:35;;;;;;;;;;;;;;;;;;5156961;27;19975;-47
2022/09/11 07:57:04;;;;;;;;;;;;;;;;;;5157305;27;19930;-45
2022/09/11 07:59:32;;;;;;;;;;;;;;;;;;5174504;27;19933;-47
2022/09/11 08:02:01;;;;;;;;;;;;;;;;;;5157009;27;19926;-49
2022/09/11 08:04:28;;;;;;;;;;;;;;;;;;5157047;27;19951;-48
2022/09/11 08:06:56;;;;;;;;;;;;;;;;;;5157075;27;19922;-52
2022/09/11 08:09:32;;;;;;;;;;;;;;;;;;5156807;27;19972;-50
2022/09/11 08:12:02;;;;;;;;;;;;;;;;;;5175681;27;20271;-49
2022/09/11 08:14:31;;;;;;;;;;;;;;;;;;5157005;27;20313;-50
2022/09/11 08:17:06;;;;;;;;;;;;;;;;;;5156421;27;19929;-51
2022/09/11 08:19:36;;;;;;;;;;;;;;;;;;5156595;27;19929;-53
2022/09/11 08:22:03;;;;;;;;;;;;;;;;;;5175664;27;19923;-50
2022/09/11 08:24:39;;;;;;;;;;;;;;;;;;5156257;27;20013;-52
2022/09/11 08:27:07;;;;;;;;;;;;;;;;;;5175396;27;20025;-50
2022/09/11 08:29:39;;;;;;;;;;;;;;;;;;5175202;27;20379;-53
2022/09/11 08:32:07;;;;;;;;;;;;;;;;;;5156962;27;19923;-51
2022/09/11 08:34:34;;;;;;;;;;;;;;;;;;5156695;27;19968;-51
2022/09/11 08:37:01;;;;;;;;;;;;;;;;;;5175456;27;19926;-48
2022/09/11 08:39:32;;;;;;;;;;;;;;;;;;5156286;27;19948;-49
2022/09/11 08:42:07;;;;;;;;;;;;;;;;;;5156609;27;19930;-54
2022/09/11 08:44:46;;;;;;;;;;;;;;;;;;5156578;27;19922;-48
2022/09/11 08:47:24;;;;;;;;;;;;;;;;;;5156287;27;19975;-46
2022/09/11 08:49:58;;;;;;;;;;;;;;;;;;5155660;27;19958;-50
2022/09/11 08:52:27;;;;;;;;;;;;;;;;;;5174858;27;19930;-54
2022/09/11 08:54:56;;;;;;;;;;;;;;;;;;5156356;27;20097;-48
2022/09/11 08:57:42;;;;;;;;;;;;;;;;;;5156257;27;19927;-49
2022/09/11 09:00:23;;;;;;;;;;;;;;;;;;5156094;27;19971;-51
2022/09/11 09:03:17;;;;;;;;;;;;;;;;;;5156096;27;19929;-51
2022/09/11 09:05:46;;;;;;;;;;;;;;;;;;5156074;27;19926;-52
2022/09/11 09:08:23;;;;;;;;;;;;;;;;;;5174689;27;20302;-52
2022/09/11 09:11:01;;;;;;;;;;;;;;;;;;5159211;27;19922;-51
2022/09/11 09:13:34;;;;;;;;;;;;;;;;;;5160382;27;19930;-50
2022/09/11 09:16:06;;;;;;;;;;;;;;;;;;5160102;27;19975;-51
2022/09/11 09:18:45;;;;;;;;;;;;;;;;;;5160489;27;20022;-49
2022/09/11 09:21:30;;;;;;;;;;;;;;;;;;5160001;27;19979;-50
2022/09/11 09:24:00;;;;;;;;;;;;;;;;;;5160183;27;20859;-46
2022/09/11 09:26:38;;;;;;;;;;;;;;;;;;5160310;27;19971;-44
2022/09/11 09:29:08;;;;;;;;;;;;;;;;;;5160572;27;19983;-47
2022/09/11 09:31:37;;;;;;;;;;;;;;;;;;5160016;27;19929;-46
2022/09/11 09:34:17;;;;;;;;;;;;;;;;;;5177611;27;20428;-49
2022/09/11 09:36:49;;;;;;;;;;;;;;;;;;5157969;27;19982;-48
2022/09/11 09:39:18;;;;;;;;;;;;;;;;;;5157744;27;20423;-44
2022/09/11 09:42:07;;;;;;;;;;;;;;;;;;5176590;27;20017;-43
2022/09/11 09:44:37;;;;;;;;;;;;;;;;;;5157813;27;20014;-47
2022/09/11 09:47:08;;;;;;;;;;;;;;;;;;5176723;27;20408;-48
2022/09/11 09:49:36;;;;;;;;;;;;;;;;;;5176441;27;20301;-51
2022/09/11 09:52:16;;;;;;;;;;;;;;;;;;5176786;27;19923;-45
2022/09/11 09:54:53;;;;;;;;;;;;;;;;;;5157518;27;19933;-52
2022/09/11 09:57:23;;;;;;;;;;;;;;;;;;5172615;27;20282;-49
2022/09/11 09:59:59;;;;;;;;;;;;;;;;;;5176924;27;19927;-51
2022/09/11 10:02:49;;;;;;;;;;;;;;;;;;5159564;27;20018;-49
2022/09/11 10:05:17;;;;;;;;;;;;;;;;;;5157403;27;20271;-61
2022/09/11 10:08:05;;;;;;;;;;;;;;;;;;5156927;27;19982;-59
2022/09/11 10:10:36;;;;;;;;;;;;;;;;;;5157295;27;20014;-51
2022/09/11 10:13:07;;;;;;;;;;;;;;;;;;5157002;27;19936;-47
2022/09/11 10:15:47;;;;;;;;;;;;;;;;;;5156854;27;19930;-44
2022/09/11 10:18:29;;;;;;;;;;;;;;;;;;5157070;27;20026;-47
2022/09/11 10:21:12;;;;;;;;;;;;;;;;;;5156751;27;20013;-48
2022/09/11 10:23:57;;;;;;;;;;;;;;;;;;5156779;27;19923;-50
2022/09/11 10:26:30;;;;;;;;;;;;;;;;;;5156884;27;19962;-44
2022/09/11 10:29:00;;;;;;;;;;;;;;;;;;5156924;27;19927;-50
2022/09/11 10:31:27;;;;;;;;;;;;;;;;;;5156524;27;19923;-52
2022/09/11 10:33:56;;;;;;;;;;;;;;;;;;5156750;27;19925;-49
2022/09/11 10:36:25;;;;;;;;;;;;;;;;;;5156619;27;19930;-49
2022/09/11 10:38:54;;;;;;;;;;;;;;;;;;5156870;27;20294;-51
2022/09/11 10:41:23;;;;;;;;;;;;;;;;;;5156769;27;19970;-47
2022/09/11 10:43:59;;;;;;;;;;;;;;;;;;5156393;27;20534;-48
2022/09/11 10:46:35;;;;;;;;;;;;;;;;;;5156268;27;19927;-46
2022/09/11 10:49:05;;;;;;;;;;;;;;;;;;5156073;27;20015;-49
2022/09/11 10:51:34;;;;;;;;;;;;;;;;;;5156403;27;19933;-48
2022/09/11 10:54:12;;;;;;;;;;;;;;;;;;5156167;27;19927;-48
2022/09/11 10:56:48;;;;;;;;;;;;;;;;;;5156527;27;20386;-49
2022/09/11 10:59:21;;;;;;;;;;;;;;;;;;5156219;27;19934;-49
2022/09/11 11:01:50;;;;;;;;;;;;;;;;;;5156196;27;19923;-50
2022/09/11 11:04:17;;;;;;;;;;;;;;;;;;5168794;27;19922;-47
2022/09/11 11:07:03;;;;;;;;;;;;;;;;;;5176881;27;20006;-50
2022/09/11 11:09:56;;;;;;;;;;;;;;;;;;5176512;27;19923;-48
2022/09/11 11:12:31;;;;;;;;;;;;;;;;;;5177088;27;19950;-48
2022/09/11 11:15:06;;;;;;;;;;;;;;;;;;5176872;27;20326;-47
2022/09/11 11:17:44;;;;;;;;;;;;;;;;;;5176865;27;19927;-48
2022/09/11 11:20:30;;;;;;;;;;;;;;;;;;5176660;27;19930;-44
2022/09/11 11:23:06;;;;;;;;;;;;;;;;;;5176612;27;19923;-54
2022/09/11 11:25:33;;;;;;;;;;;;;;;;;;5176275;27;20575;-48
2022/09/11 11:28:07;;;;;;;;;;;;;;;;;;5176701;27;19930;-44
2022/09/11 11:30:44;;;;;;;;;;;;;;;;;;5175229;27;20322;-45
2022/09/11 11:33:26;;;;;;;;;;;;;;;;;;5175779;27;19922;-48
2022/09/11 11:36:01;;;;;;;;;;;;;;;;;;5176322;27;19923;-49
2022/09/11 11:38:31;;;;;;;;;;;;;;;;;;5176167;27;19923;-47
2022/09/11 11:41:06;;;;;;;;;;;;;;;;;;5157767;27;20029;-46
2022/09/11 11:43:36;;;;;;;;;;;;;;;;;;5174189;27;20013;-47
2022/09/11 11:46:10;;;;;;;;;;;;;;;;;;5173911;27;19929;-52
2022/09/11 11:48:43;;;;;;;;;;;;;;;;;;5174065;27;19923;-49
2022/09/11 11:51:14;;;;;;;;;;;;;;;;;;5174262;27;20338;-48
2022/09/11 11:53:43;;;;;;;;;;;;;;;;;;5174908;27;20289;-48
2022/09/11 11:56:27;;;;;;;;;;;;;;;;;;5174915;27;19929;-47
2022/09/11 11:59:13;;;;;;;;;;;;;;;;;;5176015;27;19958;-46
2022/09/11 12:01:43;;;;;;;;;;;;;;;;;;5175889;27;19922;-52
2022/09/11 12:04:29;;;;;;;;;;;;;;;;;;5175717;27;20021;-52
2022/09/11 12:06:57;;;;;;;;;;;;;;;;;;5175804;27;19933;-47
2022/09/11 12:09:26;;;;;;;;;;;;;;;;;;5156858;27;20331;-47
2022/09/11 12:12:03;;;;;;;;;;;;;;;;;;5175400;27;19923;-49
2022/09/11 12:14:33;;;;;;;;;;;;;;;;;;5175599;27;19922;-46
2022/09/11 12:17:22;;;;;;;;;;;;;;;;;;5175545;27;19922;-52
2022/09/11 12:20:08;;;;;;;;;;;;;;;;;;5175284;27;19929;-48
2022/09/11 12:22:39;;;;;;;;;;;;;;;;;;5175468;27;19935;-48
2022/09/11 12:25:18;;;;;;;;;;;;;;;;;;5175552;27;20617;-51
2022/09/11 12:27:47;;;;;;;;;;;;;;;;;;5156341;27;19923;-50
2022/09/11 12:30:19;;;;;;;;;;;;;;;;;;5175409;27;19929;-49
2022/09/11 12:32:48;;;;;;;;;;;;;;;;;;5175278;27;19927;-47
2022/09/11 12:35:37;;;;;;;;;;;;;;;;;;5175879;27;19923;-48
2022/09/11 12:38:13;;;;;;;;;;;;;;;;;;5174867;27;20013;-48
2022/09/11 12:40:49;;;;;;;;;;;;;;;;;;5175180;27;20017;-45
2022/09/11 12:43:16;;;;;;;;;;;;;;;;;;5157004;27;19926;-46
2022/09/11 12:45:46;;;;;;;;;;;;;;;;;;5175038;27;20001;-44
2022/09/11 12:48:19;;;;;;;;;;;;;;;;;;5175249;27;19922;-49
2022/09/11 12:50:54;;;;;;;;;;;;;;;;;;5175287;27;19929;-47
2022/09/11 12:53:24;;;;;;;;;;;;;;;;;;5175162;27;20368;-49
2022/09/11 12:56:05;;;;;;;;;;;;;;;;;;5174861;27;19952;-50
2022/09/11 12:58:39;;;;;;;;;;;;;;;;;;5174990;27;20303;-51
2022/09/11 13:01:11;;;;;;;;;;;;;;;;;;5174842;27;19927;-44
2022/09/11 13:03:46;;;;;;;;;;;;;;;;;;5174825;27;20286;-45
2022/09/11 13:06:14;;;;;;;;;;;;;;;;;;5174605;27;20017;-45
2022/09/11 13:08:52;;;;;;;;;;;;;;;;;;5174659;27;19923;-47
2022/09/11 13:11:33;;;;;;;;;;;;;;;;;;5174852;27;19929;-44
2022/09/11 13:14:01;;;;;;;;;;;;;;;;;;5156125;27;19970;-47
2022/09/11 13:16:33;;;;;;;;;;;;;;;;;;5174721;27;19922;-50
2022/09/11 13:19:21;;;;;;;;;;;;;;;;;;5174941;27;19922;-44
2022/09/11 13:21:50;;;;;;;;;;;;;;;;;;5174975;27;19933;-46
2022/09/11 13:24:29;;;;;;;;;;;;;;;;;;5174940;27;19930;-45
2022/09/11 13:26:58;;;;;;;;;;;;;;;;;;5174328;27;20312;-44
2022/09/11 13:29:30;;;;;;;;;;;;;;;;;;5175070;27;19923;-48
2022/09/11 13:31:59;;;;;;;;;;;;;;;;;;5174892;27;19962;-48
2022/09/11 13:34:27;;;;;;;;;;;;;;;;;;5156275;27;19965;-44
2022/09/11 13:36:55;;;;;;;;;;;;;;;;;;5174699;27;20302;-44
2022/09/11 13:39:24;;;;;;;;;;;;;;;;;;5174375;27;19945;-44
2022/09/11 13:41:54;;;;;;;;;;;;;;;;;;5174771;27;20017;-43
2022/09/11 13:44:39;;;;;;;;;;;;;;;;;;5174292;27;19922;-44
2022/09/11 13:47:21;;;;;;;;;;;;;;;;;;5174059;27;19962;-48
2022/09/11 13:49:53;;;;;;;;;;;;;;;;;;5174461;27;20300;-44
2022/09/11 13:52:24;;;;;;;;;;;;;;;;;;5174869;27;20013;-44
2022/09/11 13:54:53;;;;;;;;;;;;;;;;;;5174748;27;20430;-45
2022/09/11 13:57:22;;;;;;;;;;;;;;;;;;5176523;27;20440;-48
2022/09/11 13:59:53;;;;;;;;;;;;;;;;;;5178438;27;19948;-46
2022/09/11 14:02:43;;;;;;;;;;;;;;;;;;5178615;27;19929;-44
2022/09/11 14:05:15;;;;;;;;;;;;;;;;;;5178060;27;19936;-46
2022/09/11 14:07:52;;;;;;;;;;;;;;;;;;5177989;27;20006;-43
2022/09/11 14:10:22;;;;;;;;;;;;;;;;;;5178316;27;20269;-45
2022/09/11 14:12:56;;;;;;;;;;;;;;;;;;5178227;27;19923;-48
2022/09/11 14:15:34;;;;;;;;;;;;;;;;;;5159193;27;20346;-43
2022/09/11 14:18:03;;;;;;;;;;;;;;;;;;5177946;27;19922;-45
2022/09/11 14:20:31;;;;;;;;;;;;;;;;;;5159263;27;20013;-45
2022/09/11 14:23:02;;;;;;;;;;;;;;;;;;5177383;27;19929;-48
2022/09/11 14:25:32;;;;;;;;;;;;;;;;;;5177465;27;20438;-49
2022/09/11 14:28:01;;;;;;;;;;;;;;;;;;5177828;27;20317;-45
2022/09/11 14:30:30;;;;;;;;;;;;;;;;;;5177916;27;19930;-44
2022/09/11 14:33:12;;;;;;;;;;;;;;;;;;5177785;27;19929;-52
2022/09/11 14:35:39;;;;;;;;;;;;;;;;;;5177354;27;20008;-49
2022/09/11 14:38:08;;;;;;;;;;;;;;;;;;5177732;27;19923;-48
2022/09/11 14:40:35;;;;;;;;;;;;;;;;;;5177789;27;19922;-48
2022/09/11 14:43:04;;;;;;;;;;;;;;;;;;5177041;27;20030;-49
2022/09/11 14:45:31;;;;;;;;;;;;;;;;;;5158959;27;20412;-50
2022/09/11 14:47:59;;;;;;;;;;;;;;;;;;5177182;27;19966;-46
2022/09/11 14:50:26;;;;;;;;;;;;;;;;;;5177245;27;19969;-46
2022/09/11 14:52:55;;;;;;;;;;;;;;;;;;5177679;27;19967;-43
2022/09/11 14:55:22;;;;;;;;;;;;;;;;;;5177382;27;19923;-45
2022/09/11 14:57:49;;;;;;;;;;;;;;;;;;5176712;27;19923;-48
2022/09/11 15:00:17;;;;;;;;;;;;;;;;;;5176726;27;19929;-45
2022/09/11 15:02:45;;;;;;;;;;;;;;;;;;5177313;27;20010;-46
2022/09/11 15:05:14;;;;;;;;;;;;;;;;;;5176304;27;19923;-46
2022/09/11 15:07:44;;;;;;;;;;;;;;;;;;5176600;27;20021;-50
2022/09/11 15:10:12;;;;;;;;;;;;;;;;;;5176917;27;20007;-48
2022/09/11 15:12:39;;;;;;;;;;;;;;;;;;5175972;27;19927;-50
2022/09/11 15:15:07;;;;;;;;;;;;;;;;;;5157978;27;19926;-48
2022/09/11 15:17:35;;;;;;;;;;;;;;;;;;5176577;27;20606;-45
2022/09/11 15:20:03;;;;;;;;;;;;;;;;;;5176752;27;19923;-47
2022/09/11 15:22:30;;;;;;;;;;;;;;;;;;5176751;27;19946;-47
2022/09/11 15:24:58;;;;;;;;;;;;;;;;;;5174400;27;19922;-46
2022/09/11 15:27:27;;;;;;;;;;;;;;;;;;5164209;27;20005;-44
2022/09/11 15:29:54;;;;;;;;;;;;;;;;;;5175608;27;19934;-52
2022/09/11 15:32:22;;;;;;;;;;;;;;;;;;5176114;27;19975;-40
2022/09/11 15:34:50;;;;;;;;;;;;;;;;;;5176465;27;19954;-42
2022/09/11 15:37:17;;;;;;;;;;;;;;;;;;5175972;27;20199;-41
2022/09/11 15:39:48;;;;;;;;;;;;;;;;;;5176322;27;19929;-50
2022/09/11 15:42:15;;;;;;;;;;;;;;;;;;5157605;27;19923;-45
2022/09/11 15:44:44;;;;;;;;;;;;;;;;;;5176333;27;19952;-45
2022/09/11 15:47:12;;;;;;;;;;;;;;;;;;5175994;27;20338;-43
2022/09/11 15:49:41;;;;;;;;;;;;;;;;;;5175851;27;20013;-40
2022/09/11 15:52:09;;;;;;;;;;;;;;;;;;5176217;27;19923;-41
2022/09/11 15:54:36;;;;;;;;;;;;;;;;;;5176021;27;19929;-48
2022/09/11 15:57:05;;;;;;;;;;;;;;;;;;5175843;27;19929;-47
2022/09/11 15:59:32;;;;;;;;;;;;;;;;;;5157490;27;19926;-44
2022/09/11 16:02:00;;;;;;;;;;;;;;;;;;5175720;27;19923;-41
2022/09/11 16:04:28;;;;;;;;;;;;;;;;;;5176007;27;20425;-46
2022/09/11 16:06:56;;;;;;;;;;;;;;;;;;5175646;27;20299;-50
2022/09/11 16:09:25;;;;;;;;;;;;;;;;;;5175428;27;19922;-46
2022/09/11 16:11:54;;;;;;;;;;;;;;;;;;5175259;27;19926;-40
2022/09/11 16:14:23;;;;;;;;;;;;;;;;;;5175248;27;19923;-40
2022/09/11 16:16:51;;;;;;;;;;;;;;;;;;5175607;27;19931;-41
2022/09/11 16:19:20;;;;;;;;;;;;;;;;;;5174890;27;20343;-41
2022/09/11 16:21:49;;;;;;;;;;;;;;;;;;5175215;27;20395;-45
2022/09/11 16:24:17;;;;;;;;;;;;;;;;;;5175409;27;19923;-48
2022/09/11 16:26:44;;;;;;;;;;;;;;;;;;5174832;27;19926;-46
2022/09/11 16:29:13;;;;;;;;;;;;;;;;;;5175240;27;19926;-51
2022/09/11 16:31:41;;;;;;;;;;;;;;;;;;5174499;27;20445;-41
2022/09/11 16:34:10;;;;;;;;;;;;;;;;;;5175035;27;19923;-41
2022/09/11 16:36:38;;;;;;;;;;;;;;;;;;5175018;27;19934;-43
2022/09/11 16:39:07;;;;;;;;;;;;;;;;;;5175010;27;19923;-46
2022/09/11 16:41:36;;;;;;;;;;;;;;;;;;5175056;27;19963;-43
2022/09/11 16:44:05;;;;;;;;;;;;;;;;;;5175094;27;19929;-40
2022/09/11 16:46:36;;;;;;;;;;;;;;;;;;5174741;27;19975;-48
2022/09/11 16:49:04;;;;;;;;;;;;;;;;;;5174880;27;20033;-43
2022/09/11 16:51:33;;;;;;;;;;;;;;;;;;5175189;27;19923;-44
2022/09/11 16:54:02;;;;;;;;;;;;;;;;;;5174918;27;19923;-45
2022/09/11 16:56:30;;;;;;;;;;;;;;;;;;5174728;27;19923;-43
2022/09/11 16:58:58;;;;;;;;;;;;;;;;;;5173641;27;20270;-44
2022/09/11 17:01:27;;;;;;;;;;;;;;;;;;5155378;27;19961;-44
2022/09/11 17:03:55;;;;;;;;;;;;;;;;;;5172773;27;19933;-40
2022/09/11 17:06:28;;;;;;;;;;;;;;;;;;5174142;27;19983;-41
2022/09/11 17:08:58;;;;;;;;;;;;;;;;;;5173899;27;20408;-49
2022/09/11 17:11:29;;;;;;;;;;;;;;;;;;5174388;27;19971;-40
2022/09/11 17:14:01;;;;;;;;;;;;;;;;;;5174737;27;19927;-40